Terminal Aerodrome Forecast
Issued by NWS

Current Version | Previous Version | Text Only | Print | Product List | Glossary Off
Versions: 1 2 3 4 5 6 7 8 9 10 11 12 13 14 15 16 17 18 19

618
FTUS41 KILN 170525
TAFLUK
TAF
KLUK 170525Z 1706/1806 26010G16KT P6SM BKN035
      TEMPO 1706/1708 -SHSN OVC025
     FM171400 28014G25KT P6SM SCT045
     FM172200 28008KT P6SM SCT250
     FM180300 36004KT P6SM SCT250=

USA.gov is the U.S. government's official web portal to all federal, state and local government web resources and services.